Tucson, AZ (85701)

12:54 PM MST on September 02, 2015 (GMT -0700)
Base of the Black Mountain | | Change Station
CLOSE
Current Station
Personal Weather Station
Location: Tucson, AZ
Elevation: 2369 ft
Nearby Weather Stations

Elev 2369 ft 32.22 °N, 111.00 °W | Updated 27 seconds ago

Partly Cloudy
Partly Cloudy
94.6 °F
Feels Like 92 °F
N
0.0
Wind Variable Wind from North
Gusts 0.0 mph

Today
High -- | Low -- °F
--% Chance of Precip.
Yesterday
High -- | Low -- °F
Precip. -- in
5:59 AM 6:47 PM
Waning Gibbous, 77% visible
Pressure 29.90 in
Visibility 10.0 miles
Clouds Few 21000 ft
Heat Index 92 °F
Dew Point 52 °F
Humidity 24%
Rainfall 0.00 in
Snow Depth Not available.
UV 7.0 out of 12
Pollen 5.20 out of 12
Air Quality Not available.
Flu Activity Not available.
METAR KDMA 021858Z AUTO 33003KT 10SM FEW210 31/17 A3003 RMK AO2 SLP123 T03130169 $
Pressure 29.90 in
Visibility 10.0 miles
Clouds Few 21000 ft
Heat Index 92 °F
Dew Point 52 °F
Humidity 24%
Rainfall 0.00 in
Snow Depth Not available.
UV 7.0 out of 12
Pollen 5.20 out of 12
Air Quality Not available.
Flu Activity Not available.
METAR KDMA 021858Z AUTO 33003KT 10SM FEW210 31/17 A3003 RMK AO2 SLP123 T03130169 $
Nowcast | as of 11:33 am MST on September 2, 2015

Isolated showers and thunderstorms are beginning to develop throughout Southeast Arizona. Showers and storms initially will form over higher terrain and move generally north at 10 to 15 mph. Storm coverage will gradually increase into the afternoon. The main concerns from these storms will be gusty winds up to 40 mph and heavy rain...with rainfall amounts from one tenth to one half of an inch.

×

10-Day Weather Forecast

×

Almanac

Astronomy

Sep. 02, 2015 Rise Set
Actual Time
Civil Twilight
Nautical Twilight
Astronomical Twilight
Moon
Length of Visible Light
Length of Day
Tomorrow will be .
, % of the Moon is Illuminated

Today's Extremes

State Highs State Lows

Community

WunderPhotos

Upload Photos

1,851,801 photos uploaded!

WunderBlogs® & News

Nearby

Air Quality

  Air Quality AQ Index Pollutant
Not available.

Snow Depth

Station Depth Elevation

Earthquake Activity

City Distance Mag. Time & Date
Minimum magnitude displayed is 2.5.

Coastal Water Temperatures

Place Temperature

Stations

Nearby Weather Stations

Station Location Temp. Windchill Dew Point Humidity Wind Precip. Elev Updated Type